Frenchman, Nevada
Current Conditions -  °F | °C
As of 12:56 PM on Monday 24 Nov 2014 (Local Time) from KNFL Reporting Station
Broken Clouds Broken Clouds  
Wind Chill: 48°   Ceiling: 30000
Heat Index: 48°   Visibility: 10mi
Dew Point: 19°   Wind: 0mph
Humidity: 32%   Direction: NA
Pressure: 30.45"   Gusts: NA
Location:  39.5809°N, 118.333°W
Report Text: KNFL 242056Z 00000KT 10SM FEW220 BKN300 09/M07 A3045 RMK AO2 SLP265 T00891072 58018
Loading
Personal Weather Stations






























Interactive Weather Map New forecast layout! Learn more

10-Day Weather Forecast

Advertisements
Track Severe Weather on mobile